Time;durP1;ratioP1;P1;durP2;ratioP2;P2;SDS_P1;SDS_P2;PMS_P1;PMS_P2;Temp;Humidity;BMP_temperature;BMP_pressure;BME280_temperature;BME280_humidity;BME280_pressure;Samples;Min_cycle;Max_cycle;Signal;HPM_P1;HPM_P2
2022/04/05 00:01:23;;;;;;;;;;;;;;;8.81;75.54;97095.09;5097465;28;19942;-77
2022/04/05 00:03:48;;;;;;;;;;;;;;;8.77;74.97;97088.16;5097499;28;19919;-77
2022/04/05 00:06:14;;;;;;;;;;;;;;;8.75;73.83;97103.06;5097343;28;19920;-79
2022/04/05 00:08:39;;;;;;;;;;;;;;;8.74;73.24;97103.94;5097455;28;19927;-80
2022/04/05 00:11:04;;;;;;;;;;;;;;;8.74;72.87;97096.09;5097651;28;19923;-80
2022/04/05 00:13:34;;;;;;;;;;;;;;;8.69;72.51;97098.78;5097504;28;19977;-77
2022/04/05 00:15:59;;;;;;;;;;;;;;;8.65;71.98;97109.34;5115315;28;19923;-78
2022/04/05 00:18:25;;;;;;;;;;;;;;;8.65;71.50;97106.72;5097375;28;19915;-76
2022/04/05 00:20:50;;;;;;;;;;;;;;;8.62;71.43;97100.66;5096963;28;19963;-80
2022/04/05 00:23:15;;;;;;;;;;;;;;;8.60;71.24;97105.03;5097332;28;19946;-79
2022/04/05 00:25:41;;;;;;;;;;;;;;;8.59;70.99;97100.69;5097164;28;19915;-79
2022/04/05 00:28:06;;;;;;;;;;;;;;;8.57;70.85;97105.09;5097564;28;19969;-77
2022/04/05 00:30:32;;;;;;;;;;;;;;;8.56;70.31;97103.38;5115187;28;19982;-80
2022/04/05 00:32:58;;;;;;;;;;;;;;;8.57;70.11;97107.69;5096570;28;19922;-80
2022/04/05 00:35:23;;;;;;;;;;;;;;;8.56;70.44;97105.09;5097115;28;19939;-77
2022/04/05 00:37:49;;;;;;;;;;;;;;;8.55;70.67;97098.16;5097156;28;19916;-79
2022/04/05 00:40:14;;;;;;;;;;;;;;;8.55;70.55;97093.75;5110742;27;19919;-77
2022/04/05 00:42:40;;;;;;;;;;;;;;;8.52;70.49;97099.06;5133595;27;20379;-78
2022/04/05 00:45:06;;;;;;;;;;;;;;;8.48;70.29;97102.59;5116124;27;19920;-78
2022/04/05 00:47:32;;;;;;;;;;;;;;;8.49;70.04;97096.47;5117475;27;20274;-80
2022/04/05 00:49:57;;;;;;;;;;;;;;;8.46;69.98;97104.38;5134965;27;19919;-79
2022/04/05 00:52:23;;;;;;;;;;;;;;;8.44;69.81;97099.16;5116866;27;19920;-79
2022/04/05 00:54:51;;;;;;;;;;;;;;;8.46;69.66;97100.91;5116539;27;19920;-78
2022/04/05 00:57:18;;;;;;;;;;;;;;;8.43;69.67;97097.44;5117215;27;20002;-78
2022/04/05 00:59:45;;;;;;;;;;;;;;;8.42;69.81;97094.78;5117041;27;19916;-76
2022/04/05 01:02:19;;;;;;;;;;;;;;;8.41;69.64;97095.72;5116131;27;19980;-80
2022/04/05 01:04:47;;;;;;;;;;;;;;;8.38;69.57;97104.47;5115700;27;19931;-80
2022/04/05 01:07:14;;;;;;;;;;;;;;;8.37;69.45;97097.50;5115321;27;20379;-78
2022/04/05 01:09:40;;;;;;;;;;;;;;;8.37;69.47;97107.13;5134199;27;19926;-77
2022/04/05 01:12:07;;;;;;;;;;;;;;;8.35;69.44;97109.75;5115767;27;19919;-79
2022/04/05 01:14:32;;;;;;;;;;;;;;;8.33;69.32;97108.94;5099172;27;19919;-78
2022/04/05 01:16:58;;;;;;;;;;;;;;;8.34;69.22;97105.41;5116431;27;20594;-76
2022/04/05 01:19:24;;;;;;;;;;;;;;;8.33;69.22;97101.06;5134612;27;19919;-76
2022/04/05 01:21:49;;;;;;;;;;;;;;;8.34;69.21;97097.53;5115477;27;19915;-77
2022/04/05 01:24:15;;;;;;;;;;;;;;;8.33;69.18;97100.19;5116236;27;19922;-77
2022/04/05 01:26:40;;;;;;;;;;;;;;;8.29;69.07;97091.50;5116784;27;19991;-78
2022/04/05 01:29:05;;;;;;;;;;;;;;;8.28;68.93;97097.63;5116127;27;20010;-78
2022/04/05 01:31:35;;;;;;;;;;;;;;;8.29;68.80;97098.53;5116253;27;19916;-80
2022/04/05 01:34:06;;;;;;;;;;;;;;;8.27;68.66;97101.16;5095967;28;20334;-79
2022/04/05 01:36:31;;;;;;;;;;;;;;;8.29;68.63;97086.25;5111587;27;20393;-78
2022/04/05 01:38:56;;;;;;;;;;;;;;;8.29;68.60;97085.41;5112703;28;19927;-79
2022/04/05 01:41:22;;;;;;;;;;;;;;;8.26;68.57;97078.44;5095362;28;19920;-80
2022/04/05 01:43:48;;;;;;;;;;;;;;;8.25;68.54;97077.59;5078903;28;20350;-80
2022/04/05 01:46:13;;;;;;;;;;;;;;;8.23;68.52;97075.88;5095854;28;19920;-79
2022/04/05 01:48:39;;;;;;;;;;;;;;;8.25;68.44;97066.25;5078704;28;20010;-81
2022/04/05 01:51:05;;;;;;;;;;;;;;;8.24;68.42;97064.50;5095835;28;19916;-81
2022/04/05 01:53:35;;;;;;;;;;;;;;;8.23;68.38;97058.41;5095772;28;19920;-79
2022/04/05 01:56:01;;;;;;;;;;;;;;;8.23;68.29;97047.94;5094984;28;19922;-78
2022/04/05 01:58:26;;;;;;;;;;;;;;;8.22;68.24;97046.19;5095961;28;19920;-79
2022/04/05 02:00:51;;;;;;;;;;;;;;;8.21;68.20;97043.59;5095716;28;20021;-81
2022/04/05 02:03:21;;;;;;;;;;;;;;;8.21;68.11;97036.59;5095899;28;19919;-77
2022/04/05 02:05:48;;;;;;;;;;;;;;;8.20;68.04;97037.50;5095583;28;19916;-79
2022/04/05 02:08:13;;;;;;;;;;;;;;;8.18;67.94;97034.00;5113106;28;20009;-79
2022/04/05 02:10:39;;;;;;;;;;;;;;;8.18;67.88;97023.53;5095478;28;19927;-79
2022/04/05 02:13:08;;;;;;;;;;;;;;;8.19;67.84;97014.78;5095170;28;20291;-78
2022/04/05 02:15:33;;;;;;;;;;;;;;;8.23;67.78;97011.25;5095979;28;20006;-78
2022/04/05 02:17:59;;;;;;;;;;;;;;;8.21;67.77;97015.63;5113162;28;19997;-78
2022/04/05 02:20:25;;;;;;;;;;;;;;;8.21;67.69;97007.75;5095840;28;19915;-80
2022/04/05 02:22:51;;;;;;;;;;;;;;;8.22;67.69;96996.41;5078654;28;19923;-80
2022/04/05 02:25:17;;;;;;;;;;;;;;;8.23;67.65;96987.66;5095420;28;19919;-78
2022/04/05 02:27:42;;;;;;;;;;;;;;;8.21;67.64;96996.41;5095209;28;19916;-80
2022/04/05 02:30:08;;;;;;;;;;;;;;;8.19;67.60;96992.97;5094966;28;19928;-81
2022/04/05 02:32:33;;;;;;;;;;;;;;;8.20;67.51;96979.84;5095401;28;19921;-81
2022/04/05 02:34:58;;;;;;;;;;;;;;;8.17;67.50;96985.13;5095576;28;19920;-80
2022/04/05 02:37:25;;;;;;;;;;;;;;;8.18;67.42;96973.75;5096109;28;19969;-80
2022/04/05 02:39:50;;;;;;;;;;;;;;;8.22;67.35;96967.56;5113819;28;20295;-80
2022/04/05 02:42:16;;;;;;;;;;;;;;;8.19;67.34;96962.38;5096051;28;19927;-81
2022/04/05 02:44:43;;;;;;;;;;;;;;;8.18;67.29;96965.03;5095675;28;19942;-82
2022/04/05 02:47:09;;;;;;;;;;;;;;;8.17;67.22;96953.69;5096849;28;19916;-82
2022/04/05 02:49:34;;;;;;;;;;;;;;;8.19;67.18;96948.41;5100471;28;20265;-82
2022/04/05 02:52:00;;;;;;;;;;;;;;;8.19;67.13;96940.56;5099256;28;19927;-82
2022/04/05 02:54:25;;;;;;;;;;;;;;;8.23;67.08;96927.38;5115807;28;19915;-79
2022/04/05 02:56:52;;;;;;;;;;;;;;;8.21;67.07;96908.16;5098682;28;20321;-79
2022/04/05 02:59:17;;;;;;;;;;;;;;;8.24;67.05;96907.25;5115044;28;20363;-79
2022/04/05 03:01:43;;;;;;;;;;;;;;;8.26;67.06;96901.13;5082433;28;19919;-78
2022/04/05 03:04:08;;;;;;;;;;;;;;;8.22;67.02;96895.94;5099054;28;20007;-79
2022/04/05 03:06:34;;;;;;;;;;;;;;;8.22;67.00;96888.94;5099276;28;19915;-79
2022/04/05 03:09:00;;;;;;;;;;;;;;;8.22;66.97;96880.22;5099025;28;19922;-81
2022/04/05 03:11:27;;;;;;;;;;;;;;;8.20;66.94;96875.00;5082104;28;19923;-79
2022/04/05 03:14:08;;;;;;;;;;;;;;;8.23;66.91;96866.22;5097704;28;19939;-77
2022/04/05 03:16:37;;;;;;;;;;;;;;;8.20;66.91;96848.81;5098956;28;19964;-80
2022/04/05 03:19:13;;;;;;;;;;;;;;;8.18;66.84;96850.56;5098976;28;19923;-78
2022/04/05 03:21:38;;;;;;;;;;;;;;;8.18;66.80;96840.09;5117097;28;19938;-80
2022/04/05 03:24:04;;;;;;;;;;;;;;;8.20;66.79;96827.84;5116337;28;20611;-78
2022/04/05 03:26:31;;;;;;;;;;;;;;;8.19;66.75;96815.63;5098066;28;19926;-78
2022/04/05 03:28:57;;;;;;;;;;;;;;;8.18;66.70;96806.03;5098177;28;20003;-80
2022/04/05 03:31:22;;;;;;;;;;;;;;;8.20;66.67;96799.03;5116668;28;19918;-79
2022/04/05 03:33:52;;;;;;;;;;;;;;;8.23;66.65;96784.97;5116223;28;19915;-77
2022/04/05 03:36:17;;;;;;;;;;;;;;;8.22;66.62;96780.63;5097938;28;19962;-81
2022/04/05 03:38:42;;;;;;;;;;;;;;;8.25;66.59;96734.25;5081547;28;19924;-79
2022/04/05 03:41:10;;;;;;;;;;;;;;;8.25;66.57;96731.63;5097820;28;19923;-81
2022/04/05 03:43:46;;;;;;;;;;;;;;;8.23;66.58;96714.22;5116198;28;20407;-81
2022/04/05 03:46:11;;;;;;;;;;;;;;;8.24;66.56;96687.97;5098226;28;19955;-78
2022/04/05 03:48:38;;;;;;;;;;;;;;;8.25;66.56;96679.22;5098446;28;19920;-77
2022/04/05 03:51:09;;;;;;;;;;;;;;;8.25;66.54;96666.13;5097876;28;19916;-79
2022/04/05 03:53:36;;;;;;;;;;;;;;;8.26;66.56;96669.59;5097516;28;20356;-79
2022/04/05 03:56:02;;;;;;;;;;;;;;;8.25;66.55;96671.38;5097774;28;19986;-78
2022/04/05 03:58:27;;;;;;;;;;;;;;;8.26;66.54;96665.25;5116320;28;20394;-78
2022/04/05 04:00:53;;;;;;;;;;;;;;;8.26;66.53;96664.34;5097747;28;19955;-78
2022/04/05 04:03:23;;;;;;;;;;;;;;;8.23;66.54;96660.06;5097679;28;19916;-79
2022/04/05 04:05:48;;;;;;;;;;;;;;;8.25;66.53;96645.16;5097276;28;20275;-78
2022/04/05 04:08:13;;;;;;;;;;;;;;;8.24;66.53;96638.19;5080066;28;19931;-79
2022/04/05 04:10:38;;;;;;;;;;;;;;;8.24;66.54;96639.94;5097196;28;20514;-78
2022/04/05 04:13:04;;;;;;;;;;;;;;;8.25;66.55;96642.53;5097612;28;19923;-79
2022/04/05 04:15:29;;;;;;;;;;;;;;;8.25;66.56;96642.53;5097653;28;20474;-80
2022/04/05 04:17:54;;;;;;;;;;;;;;;8.25;66.60;96637.28;5097488;28;20322;-82
2022/04/05 04:20:19;;;;;;;;;;;;;;;8.25;66.63;96637.28;5097382;28;19923;-82
2022/04/05 04:22:45;;;;;;;;;;;;;;;8.26;66.67;96639.03;5096848;28;19920;-82
2022/04/05 04:25:10;;;;;;;;;;;;;;;8.26;66.67;96641.66;5096797;28;19965;-81
2022/04/05 04:27:35;;;;;;;;;;;;;;;8.29;66.69;96624.97;5097789;28;19916;-78
2022/04/05 04:30:01;;;;;;;;;;;;;;;8.31;66.75;96630.19;5096693;28;19924;-78
2022/04/05 04:32:26;;;;;;;;;;;;;;;8.30;66.78;96625.81;5097247;28;19962;-81
2022/04/05 04:34:53;;;;;;;;;;;;;;;8.34;66.77;96633.59;5096981;28;19916;-81
2022/04/05 04:37:19;;;;;;;;;;;;;;;8.32;66.78;96621.44;5115302;28;19973;-79
2022/04/05 04:39:44;;;;;;;;;;;;;;;8.31;66.80;96630.19;5104918;27;19919;-82
2022/04/05 04:42:12;;;;;;;;;;;;;;;8.31;66.81;96623.16;5117851;27;19966;-82
2022/04/05 04:44:38;;;;;;;;;;;;;;;8.34;66.85;96628.34;5101145;27;19915;-81
2022/04/05 04:47:04;;;;;;;;;;;;;;;8.35;66.90;96632.69;5117348;27;19915;-81
2022/04/05 04:49:29;;;;;;;;;;;;;;;8.37;66.95;96632.66;5135957;27;19922;-80
2022/04/05 04:51:54;;;;;;;;;;;;;;;8.41;67.00;96631.72;5115404;27;19920;-78
2022/04/05 04:54:21;;;;;;;;;;;;;;;8.39;67.10;96636.09;5133353;27;20267;-78
2022/04/05 04:56:46;;;;;;;;;;;;;;;8.42;67.19;96633.41;5134096;27;20283;-77
2022/04/05 04:59:11;;;;;;;;;;;;;;;8.43;67.35;96640.38;5133888;27;19927;-82
2022/04/05 05:01:36;;;;;;;;;;;;;;;8.44;67.46;96642.16;5115441;27;19965;-77
2022/04/05 05:04:02;;;;;;;;;;;;;;;8.44;67.61;96648.25;5116411;27;19923;-78
2022/04/05 05:06:27;;;;;;;;;;;;;;;8.47;67.92;96642.09;5133415;27;20018;-80
2022/04/05 05:08:54;;;;;;;;;;;;;;;8.54;68.71;96645.41;5095873;28;19970;-77
2022/04/05 05:11:19;;;;;;;;;;;;;;;8.56;69.48;96661.97;5095714;28;19916;-78
2022/04/05 05:13:44;;;;;;;;;;;;;;;8.57;70.01;96674.19;5095761;28;19923;-78
2022/04/05 05:16:09;;;;;;;;;;;;;;;8.57;70.93;96682.06;5105110;27;19924;-77
2022/04/05 05:18:36;;;;;;;;;;;;;;;8.59;71.68;96689.00;5116563;27;19916;-80
2022/04/05 05:21:01;;;;;;;;;;;;;;;8.59;72.57;96702.13;5116241;27;19956;-76
2022/04/05 05:23:29;;;;;;;;;;;;;;;8.61;73.48;96705.56;5134248;27;19991;-77
2022/04/05 05:25:54;;;;;;;;;;;;;;;8.66;74.31;96715.94;5115167;27;19915;-76
2022/04/05 05:28:21;;;;;;;;;;;;;;;8.71;74.91;96724.56;5115255;27;19919;-78
2022/04/05 05:30:46;;;;;;;;;;;;;;;8.76;75.53;96737.56;5133711;27;20356;-77
2022/04/05 05:33:13;;;;;;;;;;;;;;;8.79;76.09;96748.88;5134156;27;19919;-79
2022/04/05 05:35:39;;;;;;;;;;;;;;;8.83;76.66;96760.16;5115373;27;19942;-74
2022/04/05 05:38:04;;;;;;;;;;;;;;;8.89;77.38;96780.16;5115855;27;20298;-76
2022/04/05 05:40:29;;;;;;;;;;;;;;;8.88;78.07;96792.38;5114749;27;19976;-78
2022/04/05 05:42:57;;;;;;;;;;;;;;;8.92;79.04;96822.06;5150665;27;19915;-78
2022/04/05 05:45:22;;;;;;;;;;;;;;;8.93;79.97;96845.63;5126197;27;19915;-78
2022/04/05 05:47:48;;;;;;;;;;;;;;;8.94;81.13;96870.94;5112071;28;20416;-77
2022/04/05 05:50:13;;;;;;;;;;;;;;;8.95;82.01;96903.31;5111722;28;19995;-77
2022/04/05 05:52:40;;;;;;;;;;;;;;;8.90;82.84;96936.63;5112560;28;20260;-78
2022/04/05 05:55:09;;;;;;;;;;;;;;;8.89;83.41;96969.03;5113322;28;19915;-76
2022/04/05 05:57:35;;;;;;;;;;;;;;;8.92;83.96;96993.44;5113365;28;19916;-78
2022/04/05 06:00:01;;;;;;;;;;;;;;;8.91;84.73;97022.34;5115040;27;20018;-77
2022/04/05 06:02:26;;;;;;;;;;;;;;;8.97;85.52;97036.19;5133959;27;19916;-78
2022/04/05 06:04:53;;;;;;;;;;;;;;;9.08;86.46;97038.63;5148800;27;20007;-76
2022/04/05 06:07:18;;;;;;;;;;;;;;;9.10;88.76;97052.56;5142737;27;19920;-77
2022/04/05 06:09:44;;;;;;;;;;;;;;;9.08;91.42;97066.63;5114581;27;20013;-76
2022/04/05 06:12:09;;;;;;;;;;;;;;;9.12;94.02;97073.53;5113831;28;19976;-75
2022/04/05 06:14:35;;;;;;;;;;;;;;;9.14;97.62;97098.88;5114260;27;19930;-76
2022/04/05 06:17:01;;;;;;;;;;;;;;;9.18;100.00;97110.16;5132398;27;19922;-76
2022/04/05 06:19:27;;;;;;;;;;;;;;;9.20;100.00;97123.25;5113020;27;19927;-76
2022/04/05 06:21:52;;;;;;;;;;;;;;;9.22;100.00;97139.88;5113578;27;19919;-76
2022/04/05 06:24:19;;;;;;;;;;;;;;;9.23;100.00;97168.72;5096654;28;20530;-75
2022/04/05 06:26:44;;;;;;;;;;;;;;;9.24;100.00;97180.94;5113930;28;19998;-75
2022/04/05 06:29:10;;;;;;;;;;;;;;;9.24;100.00;97206.31;5096998;28;19931;-76
2022/04/05 06:31:36;;;;;;;;;;;;;;;9.21;100.00;97233.47;5132083;28;19915;-76
2022/04/05 06:34:02;;;;;;;;;;;;;;;9.23;100.00;97251.84;5112725;28;20001;-76
2022/04/05 06:36:29;;;;;;;;;;;;;;;9.24;100.00;97267.56;5131719;28;19926;-76
2022/04/05 06:38:56;;;;;;;;;;;;;;;9.26;100.00;97286.81;5114617;28;19941;-77
2022/04/05 06:41:21;;;;;;;;;;;;;;;9.35;100.00;97304.16;5114678;28;19927;-75
2022/04/05 06:43:52;;;;;;;;;;;;;;;9.35;100.00;97325.16;5098013;28;19919;-77
2022/04/05 06:46:18;;;;;;;;;;;;;;;9.41;100.00;97339.97;5114610;28;20014;-76
2022/04/05 06:48:43;;;;;;;;;;;;;;;9.45;100.00;97363.53;5098008;28;19957;-77
2022/04/05 06:51:08;;;;;;;;;;;;;;;9.47;100.00;97382.75;5114646;28;19919;-77
2022/04/05 06:53:35;;;;;;;;;;;;;;;9.53;100.00;97403.66;5097255;28;19926;-76
2022/04/05 06:56:00;;;;;;;;;;;;;;;9.58;100.00;97421.97;5114649;28;19919;-77
2022/04/05 06:58:25;;;;;;;;;;;;;;;9.65;100.00;97444.66;5132872;28;19922;-76
2022/04/05 07:00:51;;;;;;;;;;;;;;;9.68;100.00;97472.63;5114322;28;19957;-77
2022/04/05 07:03:17;;;;;;;;;;;;;;;9.74;100.00;97503.19;5114628;28;20283;-77
2022/04/05 07:05:42;;;;;;;;;;;;;;;9.75;100.00;97512.81;5114717;28;19923;-75
2022/04/05 07:08:10;;;;;;;;;;;;;;;9.80;100.00;97547.78;5132440;28;19915;-76
2022/04/05 07:10:35;;;;;;;;;;;;;;;9.84;100.00;97567.88;5114784;28;19937;-78
2022/04/05 07:13:06;;;;;;;;;;;;;;;9.93;100.00;97596.66;5132289;28;20422;-76
2022/04/05 07:15:31;;;;;;;;;;;;;;;9.92;100.00;97634.34;5097048;28;19943;-76
2022/04/05 07:17:56;;;;;;;;;;;;;;;9.91;100.00;97677.25;5130954;28;20351;-75
2022/04/05 07:20:21;;;;;;;;;;;;;;;9.91;100.00;97713.22;5132371;28;19995;-75
2022/04/05 07:22:48;;;;;;;;;;;;;;;9.92;100.00;97742.09;5113640;28;20492;-75
2022/04/05 07:25:14;;;;;;;;;;;;;;;10.03;100.00;97765.63;5113327;28;19912;-76
2022/04/05 07:27:39;;;;;;;;;;;;;;;10.12;100.00;97790.97;5113453;28;19979;-76
2022/04/05 07:30:06;;;;;;;;;;;;;;;10.09;100.00;97822.56;5113532;28;20252;-76
2022/04/05 07:32:36;;;;;;;;;;;;;;;10.03;100.00;97848.00;5131761;27;19919;-75
2022/04/05 07:35:02;;;;;;;;;;;;;;;10.19;100.00;97876.75;5117065;27;19915;-75
2022/04/05 07:37:27;;;;;;;;;;;;;;;10.12;100.00;97902.25;5117478;27;19926;-75
2022/04/05 07:39:54;;;;;;;;;;;;;;;10.14;100.00;97942.53;5116501;27;20330;-74
2022/04/05 07:42:19;;;;;;;;;;;;;;;10.15;100.00;97961.84;5117464;27;19923;-75
2022/04/05 07:44:48;;;;;;;;;;;;;;;10.19;100.00;97981.94;5117473;27;19919;-76
2022/04/05 07:47:13;;;;;;;;;;;;;;;10.13;100.00;97942.56;5117396;27;20291;-75
2022/04/05 07:49:38;;;;;;;;;;;;;;;10.04;100.00;97968.06;5117405;27;19926;-77
2022/04/05 07:52:03;;;;;;;;;;;;;;;10.01;100.00;97998.75;5117233;27;19915;-77
2022/04/05 07:54:29;;;;;;;;;;;;;;;9.97;100.00;98018.91;5117413;27;19922;-76
2022/04/05 07:56:54;;;;;;;;;;;;;;;9.92;100.00;98035.63;5099526;27;19924;-76
2022/04/05 07:59:19;;;;;;;;;;;;;;;9.99;100.00;98047.81;5117139;27;19927;-75
2022/04/05 08:01:46;;;;;;;;;;;;;;;9.99;100.00;98063.59;5117047;27;19922;-77
2022/04/05 08:04:12;;;;;;;;;;;;;;;9.97;100.00;98082.00;5116284;27;20267;-75
2022/04/05 08:06:37;;;;;;;;;;;;;;;9.89;100.00;98095.19;5117082;27;19915;-74
2022/04/05 08:09:02;;;;;;;;;;;;;;;9.89;100.00;98104.84;5099124;27;19923;-75
2022/04/05 08:11:28;;;;;;;;;;;;;;;9.84;100.00;98106.63;5116462;27;19945;-75
2022/04/05 08:13:56;;;;;;;;;;;;;;;9.85;100.00;98104.00;5134440;27;20344;-76
2022/04/05 08:16:21;;;;;;;;;;;;;;;9.89;100.00;98115.34;5116701;27;20527;-76
2022/04/05 08:18:46;;;;;;;;;;;;;;;9.92;100.00;98110.09;5116659;27;19920;-76
2022/04/05 08:21:12;;;;;;;;;;;;;;;9.96;100.00;98117.09;5116334;27;19998;-74
2022/04/05 08:23:38;;;;;;;;;;;;;;;9.96;100.00;98119.72;5133627;27;19916;-76
2022/04/05 08:26:04;;;;;;;;;;;;;;;10.02;100.00;98124.94;5116000;27;19954;-77
2022/04/05 08:28:29;;;;;;;;;;;;;;;9.97;100.00;98139.84;5099828;27;19937;-76
2022/04/05 08:30:55;;;;;;;;;;;;;;;10.02;100.00;98143.34;5133640;27;19920;-76
2022/04/05 08:33:21;;;;;;;;;;;;;;;10.01;100.00;98143.34;5116053;27;20263;-77
2022/04/05 08:35:47;;;;;;;;;;;;;;;10.03;100.00;98152.97;5116417;27;20270;-76
2022/04/05 08:38:12;;;;;;;;;;;;;;;9.97;100.00;98162.63;5115820;27;20001;-75
2022/04/05 08:40:37;;;;;;;;;;;;;;;9.89;100.00;98173.19;5099087;27;20413;-76
2022/04/05 08:43:04;;;;;;;;;;;;;;;9.92;100.00;98164.44;5115601;27;19915;-76
2022/04/05 08:45:30;;;;;;;;;;;;;;;9.86;100.00;98171.44;5097229;27;19929;-75
2022/04/05 08:47:56;;;;;;;;;;;;;;;9.89;100.00;98173.19;5098454;27;20381;-77
2022/04/05 08:50:24;;;;;;;;;;;;;;;9.98;100.00;98156.50;5115869;27;20005;-76
2022/04/05 08:52:50;;;;;;;;;;;;;;;10.05;100.00;98156.47;5115195;27;19915;-77
2022/04/05 08:55:16;;;;;;;;;;;;;;;10.08;100.00;98158.19;5116068;27;19915;-76
2022/04/05 08:57:41;;;;;;;;;;;;;;;10.19;100.00;98156.41;5116063;27;19960;-76
2022/04/05 09:00:08;;;;;;;;;;;;;;;10.21;100.00;98177.44;5133466;27;19977;-77
2022/04/05 09:02:33;;;;;;;;;;;;;;;10.23;100.00;98189.66;5115965;27;19920;-77
2022/04/05 09:04:59;;;;;;;;;;;;;;;10.33;100.00;98201.06;5115791;27;19916;-78
2022/04/05 09:07:31;;;;;;;;;;;;;;;10.28;100.00;98213.31;5116056;27;19916;-75
2022/04/05 09:10:07;;;;;;;;;;;;;;;10.29;100.00;98225.59;5133957;27;19911;-77
2022/04/05 09:12:44;;;;;;;;;;;;;;;10.33;100.00;98245.78;5134526;27;20011;-74
2022/04/05 09:15:11;;;;;;;;;;;;;;;10.46;100.00;98254.47;5134077;27;19920;-77
2022/04/05 09:17:40;;;;;;;;;;;;;;;10.41;100.00;98278.19;5116343;27;19916;-77
2022/04/05 09:20:05;;;;;;;;;;;;;;;10.45;100.00;98288.69;5098797;27;19927;-75
2022/04/05 09:22:35;;;;;;;;;;;;;;;10.41;100.00;98320.28;5134511;27;20018;-77
2022/04/05 09:25:08;;;;;;;;;;;;;;;10.40;100.00;98338.69;5115224;27;19926;-77
2022/04/05 09:27:42;;;;;;;;;;;;;;;10.38;100.00;98357.13;5114921;27;19919;-77
2022/04/05 09:30:10;;;;;;;;;;;;;;;10.39;100.00;98379.03;5114447;27;19922;-76
2022/04/05 09:32:37;;;;;;;;;;;;;;;10.42;100.00;98400.06;5115762;27;19923;-76
2022/04/05 09:35:02;;;;;;;;;;;;;;;10.49;100.00;98412.34;5115283;27;20006;-77
2022/04/05 09:37:29;;;;;;;;;;;;;;;10.57;100.00;98414.94;5134247;27;19998;-77
2022/04/05 09:40:22;;;;;;;;;;;;;;;10.63;100.00;98425.44;5114520;27;19919;-77
2022/04/05 09:43:07;;;;;;;;;;;;;;;10.55;100.00;98448.25;5111940;27;19922;-75
2022/04/05 09:45:43;;;;;;;;;;;;;;;10.60;100.00;98459.69;5115389;27;19919;-77
2022/04/05 09:48:08;;;;;;;;;;;;;;;10.65;100.00;98471.06;5132933;27;19940;-76
2022/04/05 09:50:53;;;;;;;;;;;;;;;10.64;100.00;98485.09;5114942;27;20424;-76
2022/04/05 09:53:19;;;;;;;;;;;;;;;10.63;100.00;98487.72;5133583;27;19916;-77
2022/04/05 09:55:44;;;;;;;;;;;;;;;10.68;100.00;98513.16;5115011;28;19915;-76
2022/04/05 09:58:11;;;;;;;;;;;;;;;10.72;100.00;98520.19;5115539;27;20424;-76
2022/04/05 10:00:37;;;;;;;;;;;;;;;10.67;100.00;98537.72;5115478;27;19915;-76
2022/04/05 10:03:09;;;;;;;;;;;;;;;10.80;100.00;98542.97;5133047;27;19927;-76
2022/04/05 10:05:35;;;;;;;;;;;;;;;10.84;100.00;98560.53;5115350;27;20363;-76
2022/04/05 10:08:05;;;;;;;;;;;;;;;10.85;100.00;98570.19;5133129;27;19971;-77
2022/04/05 10:10:30;;;;;;;;;;;;;;;10.74;100.00;98583.34;5133395;27;20390;-76
2022/04/05 10:12:56;;;;;;;;;;;;;;;10.74;100.00;98583.34;5114964;28;19922;-76
2022/04/05 10:15:24;;;;;;;;;;;;;;;10.66;100.00;98590.34;5133214;27;19915;-77
2022/04/05 10:17:51;;;;;;;;;;;;;;;10.70;100.00;98590.34;5114499;28;19951;-76
2022/04/05 10:20:17;;;;;;;;;;;;;;;10.69;100.00;98574.56;5115338;28;20379;-77
2022/04/05 10:22:45;;;;;;;;;;;;;;;10.70;100.00;98571.94;5114697;27;19915;-76
2022/04/05 10:25:10;;;;;;;;;;;;;;;10.96;100.00;98536.81;5114668;28;20350;-77
2022/04/05 10:27:36;;;;;;;;;;;;;;;11.33;100.00;98507.69;5114657;28;19958;-76
2022/04/05 10:30:07;;;;;;;;;;;;;;;11.61;100.00;98494.38;5133115;28;19912;-77
2022/04/05 10:32:53;;;;;;;;;;;;;;;12.00;100.00;98495.88;5114141;28;19922;-77
2022/04/05 10:35:21;;;;;;;;;;;;;;;12.02;100.00;98530.16;5114112;28;19915;-77
2022/04/05 10:37:47;;;;;;;;;;;;;;;12.03;100.00;98553.91;5114033;28;20354;-77
2022/04/05 10:40:14;;;;;;;;;;;;;;;11.93;100.00;98598.81;5113882;28;19965;-76
2022/04/05 10:42:53;;;;;;;;;;;;;;;11.88;100.00;98637.47;5097909;28;19942;-77
2022/04/05 10:45:19;;;;;;;;;;;;;;;11.95;100.00;98663.00;5114490;28;20346;-76
2022/04/05 10:48:03;;;;;;;;;;;;;;;11.82;100.00;98684.09;5114606;28;20030;-77
2022/04/05 10:50:29;;;;;;;;;;;;;;;11.58;100.00;98710.53;5114212;28;19934;-77
2022/04/05 10:53:13;;;;;;;;;;;;;;;11.74;100.00;98722.78;5113877;28;19916;-76
2022/04/05 10:55:56;;;;;;;;;;;;;;;11.73;100.00;98741.25;5132968;28;20281;-76
2022/04/05 10:58:22;;;;;;;;;;;;;;;11.56;100.00;98759.72;5114576;28;19960;-77
2022/04/05 11:00:48;;;;;;;;;;;;;;;11.53;100.00;98763.25;5132392;28;20005;-75
2022/04/05 11:03:14;;;;;;;;;;;;;;;11.47;100.00;98769.41;5114206;28;19915;-76
2022/04/05 11:05:41;;;;;;;;;;;;;;;11.55;100.00;98771.16;5111773;28;19923;-76
2022/04/05 11:08:14;;;;;;;;;;;;;;;11.29;100.00;98785.22;5115078;27;19923;-77
2022/04/05 11:10:39;;;;;;;;;;;;;;;11.45;100.00;98765.91;5118136;27;20102;-77
2022/04/05 11:13:34;;;;;;;;;;;;;;;11.46;100.00;98761.50;5135711;27;20010;-76
2022/04/05 11:16:00;;;;;;;;;;;;;;;11.66;100.00;98756.19;5104447;27;19933;-77
2022/04/05 11:18:29;;;;;;;;;;;;;;;11.89;100.00;98750.88;5118294;27;20020;-77
2022/04/05 11:20:56;;;;;;;;;;;;;;;11.93;100.00;98764.94;5118034;27;20386;-77
2022/04/05 11:23:43;;;;;;;;;;;;;;;11.93;100.00;98780.78;5117415;27;19970;-75
2022/04/05 11:26:28;;;;;;;;;;;;;;;11.94;100.00;98788.69;5123598;27;19922;-76
2022/04/05 11:28:54;;;;;;;;;;;;;;;12.09;100.00;98781.59;5116665;27;19915;-76
2022/04/05 11:31:37;;;;;;;;;;;;;;;12.54;100.00;98767.34;5117110;27;19918;-77
2022/04/05 11:34:22;;;;;;;;;;;;;;;12.63;100.00;98794.56;5134303;27;19919;-76
2022/04/05 11:36:48;;;;;;;;;;;;;;;12.38;100.00;98842.19;5117174;27;19916;-76
2022/04/05 11:39:13;;;;;;;;;;;;;;;12.31;100.00;98864.22;5099588;27;19995;-76
2022/04/05 11:41:38;;;;;;;;;;;;;;;12.21;100.00;98876.56;5116281;27;19922;-75
2022/04/05 11:44:07;;;;;;;;;;;;;;;12.08;100.00;98891.53;5116625;27;20317;-76
2022/04/05 11:46:35;;;;;;;;;;;;;;;12.04;100.00;98884.50;5116272;27;20169;-76
2022/04/05 11:49:05;;;;;;;;;;;;;;;11.89;100.00;98897.69;5116934;27;19926;-75
2022/04/05 11:51:34;;;;;;;;;;;;;;;11.80;100.00;98883.63;5117181;27;19935;-77
2022/04/05 11:54:02;;;;;;;;;;;;;;;11.64;100.00;98887.16;5116533;27;19920;-75
2022/04/05 11:56:27;;;;;;;;;;;;;;;11.48;100.00;98879.22;5116774;27;19923;-75
2022/04/05 11:58:54;;;;;;;;;;;;;;;11.31;100.00;98875.69;5134862;27;20271;-76
2022/04/05 12:01:26;;;;;;;;;;;;;;;11.30;100.00;98843.19;5116769;27;20021;-75
2022/04/05 12:03:57;;;;;;;;;;;;;;;11.19;100.00;98829.13;5116474;27;19947;-76
2022/04/05 12:06:24;;;;;;;;;;;;;;;11.05;100.00;98801.91;5116870;27;19938;-76
2022/04/05 12:08:51;;;;;;;;;;;;;;;11.08;100.00;98789.59;5116741;27;19970;-76
2022/04/05 12:11:24;;;;;;;;;;;;;;;11.09;100.00;98775.56;5135040;27;19920;-77
2022/04/05 12:14:01;;;;;;;;;;;;;;;11.09;100.00;98758.88;5116238;27;19985;-77
2022/04/05 12:16:27;;;;;;;;;;;;;;;11.01;100.00;98750.97;5099439;27;19942;-77
2022/04/05 12:18:53;;;;;;;;;;;;;;;11.06;100.00;98746.59;5134890;27;19931;-76
2022/04/05 12:21:21;;;;;;;;;;;;;;;11.08;100.00;98734.31;5116992;27;19923;-76
2022/04/05 12:23:48;;;;;;;;;;;;;;;11.14;100.00;98731.66;5116101;27;19960;-76
2022/04/05 12:26:15;;;;;;;;;;;;;;;11.18;100.00;98729.91;5134423;27;20313;-76
2022/04/05 12:28:41;;;;;;;;;;;;;;;11.30;100.00;98711.44;5116019;27;19942;-76
2022/04/05 12:31:08;;;;;;;;;;;;;;;11.18;100.00;98735.16;5134307;27;19961;-74
2022/04/05 12:33:35;;;;;;;;;;;;;;;11.30;100.00;98731.66;5116037;27;19980;-76
2022/04/05 12:36:01;;;;;;;;;;;;;;;11.22;100.00;98746.59;5126472;27;20371;-75
2022/04/05 12:38:28;;;;;;;;;;;;;;;11.32;100.00;98738.66;5095244;28;19924;-75
2022/04/05 12:40:54;;;;;;;;;;;;;;;11.19;100.00;98772.94;5102057;27;19919;-76
2022/04/05 12:43:19;;;;;;;;;;;;;;;11.17;100.00;98779.94;5133402;27;20477;-76
2022/04/05 12:45:45;;;;;;;;;;;;;;;11.21;100.00;98793.13;5097404;27;19919;-76
2022/04/05 12:48:20;;;;;;;;;;;;;;;11.25;100.00;98796.66;5113581;28;20390;-75